Time;durP1;ratioP1;P1;durP2;ratioP2;P2;SDS_P1;SDS_P2;PMS_P1;PMS_P2;Temp;Humidity;BMP_temperature;BMP_pressure;BME280_temperature;BME280_humidity;BME280_pressure;Samples;Min_cycle;Max_cycle;Signal;HPM_P1;HPM_P2
2022/10/12 00:02:04;;;;;;;20.08;9.77;;;;;;;;;;5115966;27;20074;-74
2022/10/12 00:04:30;;;;;;;13.38;7.80;;;;;;;;;;5133572;27;20035;-66
2022/10/12 00:06:56;;;;;;;16.90;9.38;;;;;;;;;;5136935;27;20039;-66
2022/10/12 00:09:22;;;;;;;18.23;9.50;;;;;;;;;;5133654;27;20071;-66
2022/10/12 00:11:48;;;;;;;19.25;9.68;;;;;;;;;;5100959;27;20043;-66
2022/10/12 00:14:14;;;;;;;16.38;9.25;;;;;;;;;;5133917;27;20395;-66
2022/10/12 00:16:40;;;;;;;21.40;9.50;;;;;;;;;;5117637;27;20039;-66
2022/10/12 00:19:06;;;;;;;13.43;6.70;;;;;;;;;;5135230;27;20445;-67
2022/10/12 00:21:32;;;;;;;17.55;8.85;;;;;;;;;;5133006;27;20115;-66
2022/10/12 00:23:59;;;;;;;17.90;8.63;;;;;;;;;;5115520;27;20126;-66
2022/10/12 00:26:26;;;;;;;13.48;8.43;;;;;;;;;;5134581;27;20027;-66
2022/10/12 00:28:59;;;;;;;19.10;8.25;;;;;;;;;;5117785;27;20062;-66
2022/10/12 00:31:26;;;;;;;18.00;8.50;;;;;;;;;;5133216;27;20035;-66
2022/10/12 00:33:52;;;;;;;14.45;7.32;;;;;;;;;;5110553;27;20087;-66
2022/10/12 00:36:23;;;;;;;14.73;7.72;;;;;;;;;;5133375;27;20054;-67
2022/10/12 00:38:50;;;;;;;13.60;6.88;;;;;;;;;;5144643;27;20050;-66
2022/10/12 00:41:17;;;;;;;17.10;8.05;;;;;;;;;;5136130;27;20035;-67
2022/10/12 00:43:44;;;;;;;17.83;8.65;;;;;;;;;;5132975;27;20048;-66
2022/10/12 00:46:16;;;;;;;19.55;9.18;;;;;;;;;;5114746;27;20514;-67
2022/10/12 00:48:43;;;;;;;18.35;7.93;;;;;;;;;;5133113;27;20046;-66
2022/10/12 00:51:11;;;;;;;17.60;9.38;;;;;;;;;;5110846;28;20065;-66
2022/10/12 00:53:48;;;;;;;19.58;9.70;;;;;;;;;;5114378;28;20047;-66
2022/10/12 00:56:17;;;;;;;19.17;8.80;;;;;;;;;;5132936;27;20034;-66
2022/10/12 00:58:44;;;;;;;13.52;7.65;;;;;;;;;;5135234;27;20043;-66
2022/10/12 01:01:11;;;;;;;16.23;8.85;;;;;;;;;;5132734;28;20038;-66
2022/10/12 01:03:37;;;;;;;15.98;8.27;;;;;;;;;;5132979;28;20503;-66
2022/10/12 01:06:03;;;;;;;16.58;8.10;;;;;;;;;;5132871;28;20039;-66
2022/10/12 01:08:29;;;;;;;14.18;8.00;;;;;;;;;;5134430;27;20471;-66
2022/10/12 01:10:55;;;;;;;11.38;6.32;;;;;;;;;;5133895;27;20479;-66
2022/10/12 01:13:21;;;;;;;14.20;7.45;;;;;;;;;;5134275;27;20074;-66
2022/10/12 01:15:52;;;;;;;15.63;6.85;;;;;;;;;;5132538;28;20046;-66
2022/10/12 01:18:23;;;;;;;15.57;6.90;;;;;;;;;;5114768;28;20074;-66
2022/10/12 01:21:06;;;;;;;15.07;7.80;;;;;;;;;;5116327;28;20050;-66
2022/10/12 01:23:45;;;;;;;13.65;6.22;;;;;;;;;;5101896;28;20450;-73
2022/10/12 01:26:11;;;;;;;16.48;7.20;;;;;;;;;;5133027;28;20031;-75
2022/10/12 01:28:52;;;;;;;9.27;5.50;;;;;;;;;;5132428;28;20364;-74
2022/10/12 01:31:28;;;;;;;15.23;5.95;;;;;;;;;;5136417;27;20506;-66
2022/10/12 01:33:59;;;;;;;13.88;5.45;;;;;;;;;;5136818;27;20043;-74
2022/10/12 01:36:44;;;;;;;16.45;6.60;;;;;;;;;;5136903;27;20032;-74
2022/10/12 01:39:13;;;;;;;13.65;5.55;;;;;;;;;;5118472;27;20035;-74
2022/10/12 01:41:44;;;;;;;13.20;6.43;;;;;;;;;;5143545;27;20355;-75
2022/10/12 01:44:10;;;;;;;17.48;5.88;;;;;;;;;;5136872;27;20087;-74
2022/10/12 01:46:40;;;;;;;13.82;5.60;;;;;;;;;;5136204;27;20440;-74
2022/10/12 01:49:06;;;;;;;9.23;5.70;;;;;;;;;;5118207;27;20039;-76
2022/10/12 01:51:38;;;;;;;11.52;5.47;;;;;;;;;;5103124;27;20039;-76
2022/10/12 01:54:16;;;;;;;13.23;5.70;;;;;;;;;;5136741;27;20043;-75
2022/10/12 01:56:51;;;;;;;15.30;6.43;;;;;;;;;;5117740;27;20051;-75
2022/10/12 01:59:26;;;;;;;15.00;5.85;;;;;;;;;;5117862;27;20094;-75
2022/10/12 02:02:00;;;;;;;13.05;5.60;;;;;;;;;;5117182;27;20050;-75
2022/10/12 02:04:37;;;;;;;15.32;5.70;;;;;;;;;;5148003;27;20403;-75
2022/10/12 02:07:13;;;;;;;15.77;5.90;;;;;;;;;;5135204;27;20043;-75
2022/10/12 02:09:41;;;;;;;10.52;5.13;;;;;;;;;;5117908;27;20035;-75
2022/10/12 02:12:19;;;;;;;15.05;5.50;;;;;;;;;;5136625;27;20047;-75
2022/10/12 02:14:50;;;;;;;10.60;5.40;;;;;;;;;;5118393;27;20046;-75
2022/10/12 02:17:17;;;;;;;13.48;5.32;;;;;;;;;;5135847;27;20494;-75
2022/10/12 02:19:50;;;;;;;11.70;5.10;;;;;;;;;;5135973;27;20035;-75
2022/10/12 02:22:16;;;;;;;11.27;5.63;;;;;;;;;;5117633;27;20134;-75
2022/10/12 02:24:44;;;;;;;11.38;5.15;;;;;;;;;;5132238;27;20050;-74
2022/10/12 02:27:11;;;;;;;13.77;4.93;;;;;;;;;;5135755;27;20031;-75
2022/10/12 02:29:39;;;;;;;12.30;4.70;;;;;;;;;;5117153;27;20031;-75
2022/10/12 02:32:14;;;;;;;11.75;4.65;;;;;;;;;;5135077;27;20039;-67
2022/10/12 02:34:42;;;;;;;15.55;4.93;;;;;;;;;;5149082;27;20042;-67
2022/10/12 02:37:19;;;;;;;8.43;4.72;;;;;;;;;;5117216;27;20461;-67
2022/10/12 02:39:48;;;;;;;9.15;3.75;;;;;;;;;;5116698;27;20050;-67
2022/10/12 02:42:18;;;;;;;11.60;5.00;;;;;;;;;;5135083;27;20038;-66
2022/10/12 02:44:44;;;;;;;11.57;5.22;;;;;;;;;;5137960;27;20043;-67
2022/10/12 02:47:11;;;;;;;14.63;5.90;;;;;;;;;;5117068;27;20042;-67
2022/10/12 02:49:37;;;;;;;12.02;5.57;;;;;;;;;;5135570;27;20042;-67
2022/10/12 02:52:07;;;;;;;16.48;5.30;;;;;;;;;;5134398;27;20500;-75
2022/10/12 02:54:33;;;;;;;12.20;5.63;;;;;;;;;;5118826;27;20039;-67
2022/10/12 02:56:59;;;;;;;10.90;6.00;;;;;;;;;;5134714;27;20075;-75
2022/10/12 02:59:25;;;;;;;13.38;6.00;;;;;;;;;;5135150;27;20027;-75
2022/10/12 03:01:51;;;;;;;14.55;6.45;;;;;;;;;;5116737;27;20039;-75
2022/10/12 03:04:17;;;;;;;9.82;5.10;;;;;;;;;;5100619;27;20094;-75
2022/10/12 03:06:43;;;;;;;15.55;6.53;;;;;;;;;;5136844;27;20043;-75
2022/10/12 03:09:09;;;;;;;20.55;6.40;;;;;;;;;;5116003;27;20051;-75
2022/10/12 03:11:42;;;;;;;15.27;5.93;;;;;;;;;;5134818;27;20031;-75
2022/10/12 03:14:09;;;;;;;10.38;4.90;;;;;;;;;;5126924;27;20071;-74
2022/10/12 03:16:35;;;;;;;12.82;4.97;;;;;;;;;;5136168;27;20035;-74
2022/10/12 03:19:02;;;;;;;15.77;6.15;;;;;;;;;;5115521;27;20104;-75
2022/10/12 03:21:28;;;;;;;13.95;6.35;;;;;;;;;;5116753;27;20611;-75
2022/10/12 03:23:54;;;;;;;14.00;5.80;;;;;;;;;;5117347;27;20483;-75
2022/10/12 03:26:20;;;;;;;16.40;5.28;;;;;;;;;;5103261;27;20526;-75
2022/10/12 03:28:46;;;;;;;9.80;4.40;;;;;;;;;;5134783;27;20395;-75
2022/10/12 03:31:12;;;;;;;10.73;3.67;;;;;;;;;;5134385;27;20031;-75
2022/10/12 03:33:38;;;;;;;17.88;5.57;;;;;;;;;;5135498;27;20039;-74
2022/10/12 03:36:04;;;;;;;10.82;5.80;;;;;;;;;;5115448;27;20046;-67
2022/10/12 03:38:30;;;;;;;15.13;6.50;;;;;;;;;;5135285;27;20028;-67
2022/10/12 03:40:57;;;;;;;9.98;4.10;;;;;;;;;;5106081;28;20517;-74
2022/10/12 03:43:23;;;;;;;14.68;5.47;;;;;;;;;;5111392;27;20050;-75
2022/10/12 03:45:49;;;;;;;10.55;5.03;;;;;;;;;;5135389;27;20042;-67
2022/10/12 03:48:15;;;;;;;13.27;5.95;;;;;;;;;;5135194;27;20111;-67
2022/10/12 03:50:41;;;;;;;12.82;6.20;;;;;;;;;;5115589;27;20082;-67
2022/10/12 03:53:07;;;;;;;12.15;5.60;;;;;;;;;;5133986;27;20042;-75
2022/10/12 03:55:33;;;;;;;9.13;5.18;;;;;;;;;;5134050;27;20032;-67
2022/10/12 03:57:59;;;;;;;12.80;4.68;;;;;;;;;;5135116;27;20039;-67
2022/10/12 04:00:26;;;;;;;10.25;5.88;;;;;;;;;;5133214;27;20087;-66
2022/10/12 04:02:53;;;;;;;21.85;6.88;;;;;;;;;;5133440;27;20039;-66
2022/10/12 04:05:19;;;;;;;13.43;5.20;;;;;;;;;;5133942;27;20043;-67
2022/10/12 04:07:45;;;;;;;19.67;8.45;;;;;;;;;;5138323;27;20047;-66
2022/10/12 04:10:11;;;;;;;13.98;6.90;;;;;;;;;;5116247;27;20446;-66
2022/10/12 04:12:37;;;;;;;18.00;7.97;;;;;;;;;;5134046;27;20039;-67
2022/10/12 04:15:03;;;;;;;17.85;8.85;;;;;;;;;;5133218;27;20039;-66
2022/10/12 04:17:29;;;;;;;23.15;9.05;;;;;;;;;;5134864;27;20043;-67
2022/10/12 04:19:56;;;;;;;27.83;9.73;;;;;;;;;;5134625;27;20027;-66
2022/10/12 04:22:23;;;;;;;19.90;9.07;;;;;;;;;;5118381;27;20053;-66
2022/10/12 04:24:49;;;;;;;25.13;10.57;;;;;;;;;;5115126;27;20054;-67
2022/10/12 04:27:16;;;;;;;23.15;10.05;;;;;;;;;;5134447;27;20072;-67
2022/10/12 04:29:42;;;;;;;19.50;9.95;;;;;;;;;;5133201;27;20035;-66
2022/10/12 04:32:08;;;;;;;22.77;9.95;;;;;;;;;;5134301;27;20373;-67
2022/10/12 04:34:35;;;;;;;22.10;9.35;;;;;;;;;;5133550;27;20039;-67
2022/10/12 04:37:01;;;;;;;15.77;7.82;;;;;;;;;;5129994;27;20062;-75
2022/10/12 04:39:28;;;;;;;23.60;10.00;;;;;;;;;;5113308;27;20035;-67
2022/10/12 04:41:54;;;;;;;13.15;7.55;;;;;;;;;;5115340;27;21124;-67
2022/10/12 04:44:20;;;;;;;21.63;9.40;;;;;;;;;;5097445;27;20122;-67
2022/10/12 04:46:46;;;;;;;16.00;8.30;;;;;;;;;;5133327;27;20523;-67
2022/10/12 04:49:12;;;;;;;27.15;9.35;;;;;;;;;;5098137;27;20193;-68
2022/10/12 04:51:39;;;;;;;15.63;7.85;;;;;;;;;;5132941;27;20055;-67
2022/10/12 04:54:05;;;;;;;18.58;8.23;;;;;;;;;;5133525;27;20043;-67
2022/10/12 04:56:31;;;;;;;19.73;8.88;;;;;;;;;;5133268;27;20499;-67
2022/10/12 04:58:57;;;;;;;18.13;7.53;;;;;;;;;;5115467;27;20445;-75
2022/10/12 05:01:23;;;;;;;21.58;9.15;;;;;;;;;;5114280;28;20047;-75
2022/10/12 05:03:49;;;;;;;24.70;9.18;;;;;;;;;;5115782;28;20046;-75
2022/10/12 05:06:15;;;;;;;13.85;7.45;;;;;;;;;;5113835;28;20039;-75
2022/10/12 05:08:41;;;;;;;19.58;9.60;;;;;;;;;;5134183;27;20507;-75
2022/10/12 05:11:07;;;;;;;15.90;9.18;;;;;;;;;;5126342;28;20538;-75
2022/10/12 05:13:34;;;;;;;19.65;8.52;;;;;;;;;;5125971;27;20031;-75
2022/10/12 05:16:00;;;;;;;17.60;8.15;;;;;;;;;;5132796;27;20546;-67
2022/10/12 05:18:26;;;;;;;12.60;6.43;;;;;;;;;;5132746;28;20062;-67
2022/10/12 05:20:52;;;;;;;22.70;8.77;;;;;;;;;;5133954;27;20039;-67
2022/10/12 05:23:18;;;;;;;12.82;7.47;;;;;;;;;;5111879;28;20042;-67
2022/10/12 05:25:44;;;;;;;13.30;7.38;;;;;;;;;;5097705;28;20079;-75
2022/10/12 05:28:10;;;;;;;18.33;8.85;;;;;;;;;;5112032;28;20475;-74
2022/10/12 05:30:36;;;;;;;18.95;7.20;;;;;;;;;;5129366;27;20031;-74
2022/10/12 05:33:02;;;;;;;17.83;8.63;;;;;;;;;;5097208;28;20043;-75
2022/10/12 05:35:28;;;;;;;18.65;8.43;;;;;;;;;;5114248;28;20035;-75
2022/10/12 05:37:54;;;;;;;14.10;9.02;;;;;;;;;;5132846;28;20204;-74
2022/10/12 05:40:20;;;;;;;19.90;9.45;;;;;;;;;;5132914;27;20035;-74
2022/10/12 05:42:47;;;;;;;19.10;9.57;;;;;;;;;;5114172;28;20114;-74
2022/10/12 05:45:13;;;;;;;21.83;9.45;;;;;;;;;;5131722;28;20047;-75
2022/10/12 05:47:40;;;;;;;17.77;9.95;;;;;;;;;;5111685;28;20035;-75
2022/10/12 05:50:06;;;;;;;17.50;7.43;;;;;;;;;;5119589;27;20119;-74
2022/10/12 05:52:32;;;;;;;18.95;9.65;;;;;;;;;;5132806;27;20090;-75
2022/10/12 05:54:59;;;;;;;20.95;9.18;;;;;;;;;;5120664;27;20102;-75
2022/10/12 05:57:25;;;;;;;17.88;8.13;;;;;;;;;;5114574;27;20038;-75
2022/10/12 05:59:51;;;;;;;18.88;8.25;;;;;;;;;;5122319;27;20100;-74
2022/10/12 06:02:17;;;;;;;19.10;9.13;;;;;;;;;;5117686;28;20042;-75
2022/10/12 06:04:43;;;;;;;24.02;9.93;;;;;;;;;;5116556;28;20054;-74
2022/10/12 06:07:09;;;;;;;21.95;10.48;;;;;;;;;;5111062;28;20043;-75
2022/10/12 06:09:38;;;;;;;21.65;10.52;;;;;;;;;;5097025;28;20062;-74
2022/10/12 06:12:05;;;;;;;24.15;10.80;;;;;;;;;;5097119;28;20036;-74
2022/10/12 06:14:31;;;;;;;29.08;11.23;;;;;;;;;;5093232;28;20042;-75
2022/10/12 06:16:57;;;;;;;23.20;11.60;;;;;;;;;;5093570;28;20482;-75
2022/10/12 06:19:23;;;;;;;26.45;12.00;;;;;;;;;;5128014;27;20042;-74
2022/10/12 06:21:49;;;;;;;28.10;11.35;;;;;;;;;;5123942;27;20031;-75
2022/10/12 06:24:17;;;;;;;27.65;12.13;;;;;;;;;;5133437;27;20081;-75
2022/10/12 06:26:43;;;;;;;30.27;11.93;;;;;;;;;;5114919;28;20055;-67
2022/10/12 06:29:09;;;;;;;24.92;11.57;;;;;;;;;;5132886;27;20077;-67
2022/10/12 06:31:37;;;;;;;25.80;11.45;;;;;;;;;;5132984;27;20038;-74
2022/10/12 06:34:03;;;;;;;25.05;11.75;;;;;;;;;;5087680;28;20043;-74
2022/10/12 06:36:29;;;;;;;27.25;12.13;;;;;;;;;;5114130;28;20484;-75
2022/10/12 06:38:55;;;;;;;27.98;11.13;;;;;;;;;;5109661;27;20507;-75
2022/10/12 06:41:21;;;;;;;23.30;9.98;;;;;;;;;;5120344;27;20465;-75
2022/10/12 06:43:47;;;;;;;22.25;9.02;;;;;;;;;;5134038;27;20092;-75
2022/10/12 06:46:13;;;;;;;17.80;7.40;;;;;;;;;;5135305;27;20091;-74
2022/10/12 06:48:39;;;;;;;14.77;7.57;;;;;;;;;;5116563;27;20035;-75
2022/10/12 06:51:05;;;;;;;16.63;7.18;;;;;;;;;;5135278;27;20124;-75
2022/10/12 06:53:33;;;;;;;19.30;7.10;;;;;;;;;;5116941;27;20077;-75
2022/10/12 06:55:59;;;;;;;13.63;6.60;;;;;;;;;;5100927;27;20402;-65
2022/10/12 06:58:26;;;;;;;14.05;6.60;;;;;;;;;;5137152;27;20039;-65
2022/10/12 07:00:52;;;;;;;20.08;6.88;;;;;;;;;;5099178;27;20045;-73
2022/10/12 07:03:19;;;;;;;13.70;6.03;;;;;;;;;;5139295;27;20039;-66
2022/10/12 07:05:45;;;;;;;18.35;6.70;;;;;;;;;;5135975;27;20039;-67
2022/10/12 07:08:11;;;;;;;16.77;5.90;;;;;;;;;;5143942;27;20092;-67
2022/10/12 07:10:37;;;;;;;15.45;6.15;;;;;;;;;;5148516;27;20428;-65
2022/10/12 07:13:04;;;;;;;17.10;6.22;;;;;;;;;;5134340;27;20062;-66
2022/10/12 07:15:30;;;;;;;15.27;5.35;;;;;;;;;;5125377;27;20502;-65
2022/10/12 07:17:56;;;;;;;12.48;5.97;;;;;;;;;;5130766;27;20084;-66
2022/10/12 07:20:22;;;;;;;17.67;5.70;;;;;;;;;;5101796;27;20032;-65
2022/10/12 07:22:48;;;;;;;13.90;6.30;;;;;;;;;;5114107;27;20637;-65
2022/10/12 07:25:14;;;;;;;11.65;5.53;;;;;;;;;;5129183;27;20047;-65
2022/10/12 07:27:40;;;;;;;16.85;5.78;;;;;;;;;;5130313;27;20042;-65
2022/10/12 07:30:07;;;;;;;15.40;6.10;;;;;;;;;;5129873;27;20053;-66
2022/10/12 07:32:33;;;;;;;13.18;6.65;;;;;;;;;;5128980;27;20364;-66
2022/10/12 07:34:59;;;;;;;13.25;5.85;;;;;;;;;;5128324;27;20522;-65
2022/10/12 07:37:25;;;;;;;15.05;5.65;;;;;;;;;;5135243;27;20483;-66
2022/10/12 07:39:55;;;;;;;20.90;6.72;;;;;;;;;;5119762;27;20038;-66
2022/10/12 07:42:22;;;;;;;15.70;5.95;;;;;;;;;;5120870;27;20062;-66
2022/10/12 07:44:48;;;;;;;17.83;6.50;;;;;;;;;;5134105;27;20039;-67
2022/10/12 07:47:16;;;;;;;17.83;6.35;;;;;;;;;;5115228;27;20039;-66
2022/10/12 07:49:42;;;;;;;14.10;6.50;;;;;;;;;;5134190;27;20047;-66
2022/10/12 07:52:09;;;;;;;19.38;7.38;;;;;;;;;;5133611;27;20127;-67
2022/10/12 07:54:35;;;;;;;17.10;7.05;;;;;;;;;;5115478;27;20039;-74
2022/10/12 07:57:01;;;;;;;15.60;6.60;;;;;;;;;;5110757;27;20046;-74
2022/10/12 07:59:27;;;;;;;21.27;10.43;;;;;;;;;;5096324;27;20480;-74
2022/10/12 08:01:53;;;;;;;19.80;11.20;;;;;;;;;;5129963;27;20146;-74
2022/10/12 08:04:19;;;;;;;20.33;8.27;;;;;;;;;;5113473;27;20062;-74
2022/10/12 08:06:45;;;;;;;16.85;10.10;;;;;;;;;;5110646;27;20039;-75
2022/10/12 08:09:11;;;;;;;16.50;9.05;;;;;;;;;;5129963;27;20039;-75
2022/10/12 08:11:39;;;;;;;17.77;9.90;;;;;;;;;;5129016;27;20038;-74
2022/10/12 08:14:05;;;;;;;27.35;17.95;;;;;;;;;;5132374;27;20054;-74
2022/10/12 08:16:31;;;;;;;21.30;11.07;;;;;;;;;;5132846;27;20030;-74
2022/10/12 08:18:59;;;;;;;19.77;12.23;;;;;;;;;;5132487;27;20035;-74
2022/10/12 08:21:25;;;;;;;25.88;15.43;;;;;;;;;;5091060;28;20035;-74
2022/10/12 08:23:51;;;;;;;14.95;9.55;;;;;;;;;;5129838;27;20050;-74
2022/10/12 08:26:17;;;;;;;17.77;8.77;;;;;;;;;;5127923;27;20031;-75
2022/10/12 08:28:43;;;;;;;17.38;8.65;;;;;;;;;;5128678;27;21191;-75
2022/10/12 08:31:11;;;;;;;18.05;9.00;;;;;;;;;;5132193;27;20379;-75
2022/10/12 08:33:37;;;;;;;17.48;8.57;;;;;;;;;;5111628;27;20035;-75
2022/10/12 08:36:04;;;;;;;18.17;7.72;;;;;;;;;;5129345;27;20035;-75
2022/10/12 08:38:30;;;;;;;14.23;7.43;;;;;;;;;;5127416;27;20039;-75
2022/10/12 08:41:18;;;;;;;13.52;7.13;;;;;;;;;;5093958;27;20096;-79
2022/10/12 08:43:53;;;;;;;13.85;6.22;;;;;;;;;;5121617;27;20047;-79
2022/10/12 08:46:20;;;;;;;12.60;6.10;;;;;;;;;;5133060;27;20155;-78
2022/10/12 08:48:46;;;;;;;12.95;6.10;;;;;;;;;;5137498;27;20476;-78
2022/10/12 08:51:15;;;;;;;14.40;6.00;;;;;;;;;;5118746;27;20126;-79
2022/10/12 08:53:44;;;;;;;11.23;5.65;;;;;;;;;;5148478;27;20100;-79
2022/10/12 08:56:10;;;;;;;10.20;5.53;;;;;;;;;;5114452;27;20123;-80
2022/10/12 08:58:38;;;;;;;13.00;6.03;;;;;;;;;;5115706;27;20034;-80
2022/10/12 09:01:19;;;;;;;18.15;5.45;;;;;;;;;;5138129;27;20521;-79
2022/10/12 09:04:04;;;;;;;11.63;5.88;;;;;;;;;;5128997;27;20118;-79
2022/10/12 09:06:34;;;;;;;12.60;5.03;;;;;;;;;;5120757;27;20039;-79
2022/10/12 09:09:30;;;;;;;14.02;5.28;;;;;;;;;;5133144;27;20036;-79
2022/10/12 09:11:59;;;;;;;12.43;5.00;;;;;;;;;;5080589;28;20415;-79
2022/10/12 09:14:31;;;;;;;13.65;4.90;;;;;;;;;;5112088;28;20503;-79
2022/10/12 09:16:59;;;;;;;11.43;5.22;;;;;;;;;;5111859;28;20492;-79
2022/10/12 09:19:32;;;;;;;9.80;4.82;;;;;;;;;;5096627;28;20453;-79
2022/10/12 09:21:58;;;;;;;10.38;4.90;;;;;;;;;;5101904;28;20404;-79
2022/10/12 09:24:29;;;;;;;14.07;5.05;;;;;;;;;;5116394;28;20141;-77
2022/10/12 09:27:07;;;;;;;9.27;4.32;;;;;;;;;;5119079;28;20066;-76
2022/10/12 09:29:33;;;;;;;12.35;4.43;;;;;;;;;;5122895;28;20043;-76
2022/10/12 09:32:19;;;;;;;10.50;4.45;;;;;;;;;;5095710;28;20043;-76
2022/10/12 09:34:45;;;;;;;10.85;4.38;;;;;;;;;;5128334;27;20042;-67
2022/10/12 09:37:13;;;;;;;10.93;4.45;;;;;;;;;;5109914;28;20399;-69
2022/10/12 09:39:39;;;;;;;9.13;4.30;;;;;;;;;;5103613;27;20556;-67
2022/10/12 09:42:05;;;;;;;10.65;5.22;;;;;;;;;;5122685;27;20080;-66
2022/10/12 09:44:36;;;;;;;9.23;4.43;;;;;;;;;;5133584;27;20040;-67
2022/10/12 09:47:05;;;;;;;8.65;3.83;;;;;;;;;;5125531;28;20114;-67
2022/10/12 09:49:44;;;;;;;9.75;4.32;;;;;;;;;;5097094;28;20036;-67
2022/10/12 09:52:12;;;;;;;9.65;4.13;;;;;;;;;;5118598;27;20092;-67
2022/10/12 09:54:40;;;;;;;13.25;4.15;;;;;;;;;;5137971;27;20096;-67
2022/10/12 09:57:06;;;;;;;8.98;4.40;;;;;;;;;;5102275;27;20030;-67
2022/10/12 09:59:36;;;;;;;10.48;3.92;;;;;;;;;;5124980;27;20056;-67
2022/10/12 10:02:11;;;;;;;11.55;5.25;;;;;;;;;;5102296;28;20496;-67
2022/10/12 10:04:41;;;;;;;12.48;7.20;;;;;;;;;;5107431;28;20073;-67
2022/10/12 10:07:26;;;;;;;12.25;5.85;;;;;;;;;;5115650;28;20088;-67
2022/10/12 10:10:06;;;;;;;11.10;4.80;;;;;;;;;;5111867;27;20082;-67
2022/10/12 10:12:35;;;;;;;13.27;6.57;;;;;;;;;;5104656;27;20556;-69
2022/10/12 10:15:01;;;;;;;13.00;8.63;;;;;;;;;;5133389;27;20035;-68
2022/10/12 10:17:28;;;;;;;22.63;16.77;;;;;;;;;;5147053;27;20035;-68
2022/10/12 10:19:56;;;;;;;12.23;6.72;;;;;;;;;;5140133;27;20074;-69
2022/10/12 10:22:23;;;;;;;14.75;5.85;;;;;;;;;;5145641;27;20047;-68
2022/10/12 10:24:50;;;;;;;14.20;4.97;;;;;;;;;;5119237;27;20437;-67
2022/10/12 10:27:45;;;;;;;10.13;4.18;;;;;;;;;;5143856;27;20035;-68
2022/10/12 10:30:11;;;;;;;;;;;;;;;;;;5094454;27;20515;-68
2022/10/12 10:32:37;;;;;;;9.65;4.05;;;;;;;;;;5146825;27;19919;-68
2022/10/12 10:35:22;;;;;;;9.45;4.28;;;;;;;;;;5129875;27;20047;-68
2022/10/12 10:38:14;;;;;;;9.33;4.13;;;;;;;;;;5127915;27;20088;-68
2022/10/12 10:40:59;;;;;;;10.32;4.53;;;;;;;;;;5133501;27;20296;-68
2022/10/12 10:43:46;;;;;;;11.15;4.20;;;;;;;;;;5134762;27;20042;-68
2022/10/12 10:46:32;;;;;;;9.82;4.10;;;;;;;;;;5136080;27;20069;-68
2022/10/12 10:49:05;;;;;;;10.60;4.28;;;;;;;;;;5140632;27;20047;-74
2022/10/12 10:51:49;;;;;;;10.13;4.35;;;;;;;;;;5139504;27;20052;-74
2022/10/12 10:54:25;;;;;;;11.63;4.40;;;;;;;;;;5121783;27;20361;-74
2022/10/12 10:56:52;;;;;;;9.98;4.22;;;;;;;;;;5134614;27;20475;-74
2022/10/12 10:59:37;;;;;;;8.93;4.03;;;;;;;;;;5149589;27;20118;-74
2022/10/12 11:02:11;;;;;;;11.02;3.58;;;;;;;;;;5099429;27;20055;-74
2022/10/12 11:04:40;;;;;;;8.55;3.08;;;;;;;;;;5134555;27;20118;-74
2022/10/12 11:07:19;;;;;;;10.40;3.63;;;;;;;;;;5138650;27;20046;-74
2022/10/12 11:09:47;;;;;;;8.85;3.30;;;;;;;;;;5135780;27;20392;-74
2022/10/12 11:12:23;;;;;;;7.72;2.90;;;;;;;;;;5134169;27;20125;-74
2022/10/12 11:14:52;;;;;;;7.60;3.03;;;;;;;;;;5137296;27;20372;-74
2022/10/12 11:17:21;;;;;;;9.00;3.10;;;;;;;;;;5116468;27;20035;-74
2022/10/12 11:20:06;;;;;;;9.10;3.28;;;;;;;;;;5120280;27;20067;-74
2022/10/12 11:22:40;;;;;;;8.13;3.17;;;;;;;;;;5121581;27;20035;-75
2022/10/12 11:25:21;;;;;;;7.80;3.13;;;;;;;;;;5117885;27;20036;-74
2022/10/12 11:27:47;;;;;;;11.63;3.90;;;;;;;;;;5121257;27;20042;-74
2022/10/12 11:30:15;;;;;;;9.13;3.08;;;;;;;;;;5102134;28;20043;-75
2022/10/12 11:32:43;;;;;;;9.13;3.45;;;;;;;;;;5131212;27;20068;-74
2022/10/12 11:35:16;;;;;;;8.30;3.00;;;;;;;;;;5123344;27;20054;-74
2022/10/12 11:37:48;;;;;;;12.48;3.58;;;;;;;;;;5134324;27;20035;-74
2022/10/12 11:40:23;;;;;;;8.98;3.17;;;;;;;;;;5106206;27;20046;-74
2022/10/12 11:42:49;;;;;;;9.18;2.67;;;;;;;;;;5134075;27;20035;-73
2022/10/12 11:45:21;;;;;;;8.05;3.20;;;;;;;;;;5137019;27;20042;-74
2022/10/12 11:47:51;;;;;;;8.73;3.17;;;;;;;;;;5133644;27;20127;-74
2022/10/12 11:50:26;;;;;;;9.70;3.13;;;;;;;;;;5118931;27;20094;-73
2022/10/12 11:52:54;;;;;;;8.90;3.30;;;;;;;;;;5123852;27;20078;-73
2022/10/12 11:55:38;;;;;;;11.70;3.22;;;;;;;;;;5137342;27;20050;-73
2022/10/12 11:58:08;;;;;;;9.20;3.43;;;;;;;;;;5114649;27;20039;-73
2022/10/12 12:01:09;;;;;;;8.30;3.10;;;;;;;;;;5121980;27;20272;-73
2022/10/12 12:03:45;;;;;;;9.75;3.10;;;;;;;;;;5030405;28;20041;-73
2022/10/12 12:06:29;;;;;;;9.40;3.15;;;;;;;;;;5112949;27;20035;-74
2022/10/12 12:08:56;;;;;;;9.50;3.13;;;;;;;;;;5115718;27;20111;-74
2022/10/12 12:11:24;;;;;;;8.15;3.08;;;;;;;;;;5115515;27;20114;-74
2022/10/12 12:13:50;;;;;;;8.50;2.95;;;;;;;;;;5132780;27;20047;-74
2022/10/12 12:16:16;;;;;;;8.25;2.97;;;;;;;;;;5114068;27;20043;-75
2022/10/12 12:19:01;;;;;;;8.90;2.95;;;;;;;;;;5098186;27;20039;-74
2022/10/12 12:21:27;;;;;;;8.70;2.83;;;;;;;;;;5135348;27;20031;-74
2022/10/12 12:23:54;;;;;;;7.60;2.88;;;;;;;;;;5139576;27;20072;-74
2022/10/12 12:26:21;;;;;;;11.60;3.08;;;;;;;;;;5128384;27;20361;-74
2022/10/12 12:28:49;;;;;;;9.10;2.72;;;;;;;;;;5128102;27;20078;-73
2022/10/12 12:31:21;;;;;;;11.18;2.60;;;;;;;;;;5122707;27;20028;-82
2022/10/12 12:33:48;;;;;;;8.05;2.50;;;;;;;;;;5116037;27;20508;-72
2022/10/12 12:36:26;;;;;;;6.40;2.58;;;;;;;;;;5125315;27;20145;-71
2022/10/12 12:38:53;;;;;;;9.65;3.10;;;;;;;;;;5126351;27;20391;-73
2022/10/12 12:41:39;;;;;;;8.73;2.67;;;;;;;;;;5115160;27;20035;-73
2022/10/12 12:44:25;;;;;;;10.73;3.05;;;;;;;;;;5139059;27;20043;-69
2022/10/12 12:46:53;;;;;;;9.15;2.78;;;;;;;;;;5145041;27;20077;-70
2022/10/12 12:49:38;;;;;;;6.85;2.47;;;;;;;;;;5115196;27;20031;-72
2022/10/12 12:52:34;;;;;;;15.35;3.13;;;;;;;;;;5119356;27;20087;-72
2022/10/12 12:55:15;;;;;;;13.90;3.38;;;;;;;;;;5102511;27;20126;-72
2022/10/12 12:57:41;;;;;;;10.85;3.22;;;;;;;;;;5120322;27;20031;-71
2022/10/12 13:00:12;;;;;;;13.50;3.97;;;;;;;;;;5137858;27;20031;-70
2022/10/12 13:02:57;;;;;;;8.82;3.28;;;;;;;;;;5126329;27;20044;-70
2022/10/12 13:05:39;;;;;;;11.25;3.55;;;;;;;;;;5117949;27;20048;-69
2022/10/12 13:08:05;;;;;;;11.30;3.67;;;;;;;;;;5112172;28;20035;-69
2022/10/12 13:11:03;;;;;;;8.75;3.60;;;;;;;;;;5113533;28;20119;-70
2022/10/12 13:13:33;;;;;;;11.82;3.60;;;;;;;;;;5062951;28;20048;-69
2022/10/12 13:16:06;;;;;;;10.45;3.90;;;;;;;;;;5116871;28;20484;-71
2022/10/12 13:18:32;;;;;;;11.02;4.60;;;;;;;;;;5122912;28;20039;-70
2022/10/12 13:20:58;;;;;;;8.55;4.32;;;;;;;;;;5111817;28;20036;-69
2022/10/12 13:23:26;;;;;;;10.70;4.63;;;;;;;;;;5119645;27;20108;-70
2022/10/12 13:26:15;;;;;;;10.98;4.82;;;;;;;;;;5125816;27;20092;-69
2022/10/12 13:28:42;;;;;;;14.05;4.95;;;;;;;;;;5131927;27;20074;-70
2022/10/12 13:31:21;;;;;;;12.02;5.55;;;;;;;;;;5125610;27;20451;-69
2022/10/12 13:34:04;;;;;;;11.60;5.63;;;;;;;;;;5105525;27;20046;-68
2022/10/12 13:36:32;;;;;;;11.30;5.28;;;;;;;;;;5100616;27;20392;-70
2022/10/12 13:39:00;;;;;;;11.63;5.00;;;;;;;;;;5118060;27;20039;-70
2022/10/12 13:41:30;;;;;;;13.93;5.68;;;;;;;;;;5152410;27;20091;-70
2022/10/12 13:44:00;;;;;;;13.75;6.47;;;;;;;;;;5098580;28;20081;-70
2022/10/12 13:46:43;;;;;;;15.13;5.90;;;;;;;;;;5129926;27;20047;-70
2022/10/12 13:49:17;;;;;;;14.85;5.60;;;;;;;;;;5127575;27;20047;-70
2022/10/12 13:51:44;;;;;;;16.85;5.78;;;;;;;;;;5112274;27;20055;-70
2022/10/12 13:54:18;;;;;;;13.88;5.70;;;;;;;;;;5116266;28;20035;-70
2022/10/12 13:56:45;;;;;;;17.58;5.70;;;;;;;;;;5131625;27;20027;-70
2022/10/12 13:59:15;;;;;;;17.52;6.10;;;;;;;;;;5134992;27;20031;-70
2022/10/12 14:02:07;;;;;;;15.43;6.00;;;;;;;;;;5101256;27;20039;-70
2022/10/12 14:04:34;;;;;;;10.63;5.80;;;;;;;;;;5097656;27;20035;-70
2022/10/12 14:07:02;;;;;;;12.80;5.85;;;;;;;;;;5139088;27;20114;-70
2022/10/12 14:09:33;;;;;;;15.95;5.97;;;;;;;;;;5135087;27;20031;-70
2022/10/12 14:11:59;;;;;;;18.77;6.00;;;;;;;;;;5136429;27;20039;-74
2022/10/12 14:14:32;;;;;;;17.17;6.50;;;;;;;;;;5100310;27;20075;-74
2022/10/12 14:16:59;;;;;;;12.93;5.38;;;;;;;;;;5108035;27;20070;-74
2022/10/12 14:19:34;;;;;;;16.80;6.03;;;;;;;;;;5136933;27;20038;-73
2022/10/12 14:22:00;;;;;;;13.30;4.80;;;;;;;;;;5144466;27;20122;-74
2022/10/12 14:24:27;;;;;;;11.35;5.00;;;;;;;;;;5142507;27;20100;-74
2022/10/12 14:26:55;;;;;;;11.65;5.07;;;;;;;;;;5137112;27;20433;-74
2022/10/12 14:29:26;;;;;;;12.85;4.80;;;;;;;;;;5136672;27;20094;-73
2022/10/12 14:31:54;;;;;;;13.82;4.90;;;;;;;;;;5130610;27;20043;-74
2022/10/12 14:34:26;;;;;;;16.60;5.45;;;;;;;;;;5116868;27;20071;-74
2022/10/12 14:37:04;;;;;;;13.02;4.50;;;;;;;;;;5141265;27;20063;-74
2022/10/12 14:39:30;;;;;;;13.07;4.57;;;;;;;;;;5113965;28;20035;-74
2022/10/12 14:41:57;;;;;;;14.70;5.28;;;;;;;;;;5123477;27;20808;-74
2022/10/12 14:44:25;;;;;;;14.10;4.53;;;;;;;;;;5134629;27;20070;-74
2022/10/12 14:46:54;;;;;;;14.05;4.90;;;;;;;;;;5112840;27;20457;-74